METAR Data
IDs: Format: Raw Decoded Include TAF

Data at: 2214 UTC 21 May 2022

KOMA 212152Z 30016G22KT 10SM BKN065 BKN160 17/01 A3016 RMK AO2 SLP215 T01670006

KOFF 212156Z 31013KT 10SM FEW065 16/M01 A3018 RMK AO2A SLP225 T01611006 PWINO PNO FZRANO TSNO VISNO RWY12 CHINO RWY12 $

KTQE 212154Z AUTO 30015G21KT 10SM BKN065 14/M01 A3019 RMK AO2 PK WND 31026/2108 SLP218 T01441011

KFET 212155Z AUTO 34011G18KT 10SM BKN065 14/00 A3019 RMK AO2 T01390001

KOLU 212156Z AUTO 32011G23KT 10SM FEW070 14/M03 A3021 RMK AO2 PK WND 32026/2139 SLP237 T01441033

KOFK 212156Z AUTO 32015G22KT 10SM OVC065 13/M02 A3020 RMK AO2 PK WND 30027/2126 SLP232 T01281017

KSUX 212152Z 32017G23KT 10SM BKN060 13/M01 A3017 RMK AO2 SLP221 T01281011

KMLE 212155Z AUTO 32011G19KT 10SM SCT065 14/00 A3018 RMK AO2 T01411004

KCBF 212155Z AUTO 31010G21KT 10SM BKN060 14/M03 A3014 RMK AO2